Time;durP1;ratioP1;P1;durP2;ratioP2;P2;SDS_P1;SDS_P2;PMS_P1;PMS_P2;Temp;Humidity;BMP_temperature;BMP_pressure;BME280_temperature;BME280_humidity;BME280_pressure;Samples;Min_cycle;Max_cycle;Signal;HPM_P1;HPM_P2
2022/10/07 00:01:45;;;;;;;11.33;2.40;;;13.80;99.90;;;;;;5073824;28;20226;-58
2022/10/07 00:04:10;;;;;;;20.90;2.97;;;13.70;99.90;;;;;;5073598;28;20180;-58
2022/10/07 00:06:36;;;;;;;17.77;2.17;;;13.70;99.90;;;;;;5073410;28;20588;-58
2022/10/07 00:09:02;;;;;;;14.47;2.60;;;13.60;99.90;;;;;;5073133;28;20240;-58
2022/10/07 00:11:28;;;;;;;13.50;2.20;;;13.70;99.90;;;;;;5072920;28;20161;-58
2022/10/07 00:13:56;;;;;;;13.83;2.50;;;13.70;99.90;;;;;;5073090;28;20221;-58
2022/10/07 00:16:28;;;;;;;16.77;2.07;;;13.70;99.90;;;;;;5073239;28;20754;-58
2022/10/07 00:18:56;;;;;;;15.50;2.47;;;13.70;99.90;;;;;;5073325;28;20176;-59
2022/10/07 00:21:23;;;;;;;15.80;2.13;;;13.70;99.90;;;;;;5073105;28;20165;-59
2022/10/07 00:23:49;;;;;;;18.93;2.60;;;13.60;99.90;;;;;;5073333;28;20169;-58
2022/10/07 00:26:18;;;;;;;20.37;2.60;;;13.80;99.90;;;;;;5073226;28;20203;-58
2022/10/07 00:28:44;;;;;;;13.53;3.23;;;13.70;99.90;;;;;;5073326;28;20262;-59
2022/10/07 00:31:17;;;;;;;24.50;3.07;;;13.60;99.90;;;;;;5073337;28;20639;-59
2022/10/07 00:33:44;;;;;;;13.53;2.07;;;13.70;99.90;;;;;;5073065;28;20173;-59
2022/10/07 00:36:34;;;;;;;21.23;2.47;;;13.60;99.90;;;;;;5073231;28;20183;-57
2022/10/07 00:39:03;;;;;;;14.03;2.17;;;13.60;99.90;;;;;;5072518;28;20223;-58
2022/10/07 00:41:32;;;;;;;20.43;2.97;;;13.60;99.90;;;;;;5072727;28;20191;-58
2022/10/07 00:43:58;;;;;;;16.23;2.50;;;13.60;99.90;;;;;;5072844;28;20883;-58
2022/10/07 00:46:34;;;;;;;17.57;2.47;;;13.60;99.90;;;;;;5072692;28;20173;-58
2022/10/07 00:49:09;;;;;;;12.47;2.50;;;13.60;99.90;;;;;;5072696;28;20693;-58
2022/10/07 00:51:35;;;;;;;21.50;2.77;;;13.50;99.90;;;;;;5072437;28;20224;-58
2022/10/07 00:54:05;;;;;;;19.03;2.67;;;13.60;99.90;;;;;;5072854;28;20165;-58
2022/10/07 00:56:32;;;;;;;16.50;2.50;;;13.70;99.90;;;;;;5072695;28;20177;-58
2022/10/07 00:58:58;;;;;;;11.17;2.00;;;13.60;99.90;;;;;;5072719;28;20262;-59
2022/10/07 01:01:25;;;;;;;18.30;2.10;;;13.60;99.90;;;;;;5072764;28;20231;-58
2022/10/07 01:03:52;;;;;;;17.57;2.27;;;13.60;99.90;;;;;;5072263;28;20177;-59
2022/10/07 01:06:18;;;;;;;18.47;2.50;;;13.60;99.90;;;;;;5072510;28;20180;-59
2022/10/07 01:08:46;;;;;;;14.53;2.30;;;13.70;99.90;;;;;;5072307;28;20212;-59
2022/10/07 01:11:38;;;;;;;14.47;2.10;;;13.60;99.90;;;;;;5072619;28;20169;-59
2022/10/07 01:14:22;;;;;;;18.50;2.47;;;13.60;99.90;;;;;;5072164;28;20224;-59
2022/10/07 01:17:03;;;;;;;11.90;1.90;;;13.70;99.90;;;;;;5071748;28;20272;-59
2022/10/07 01:19:51;;;;;;;19.83;2.03;;;13.50;99.90;;;;;;5072225;28;20179;-59
2022/10/07 01:22:40;;;;;;;12.37;2.37;;;13.50;99.90;;;;;;5072103;28;20196;-59
2022/10/07 01:25:27;;;;;;;23.40;2.40;;;13.60;99.90;;;;;;5072283;28;20306;-59
2022/10/07 01:28:04;;;;;;;18.77;2.37;;;13.60;99.90;;;;;;5072049;28;20172;-59
2022/10/07 01:30:32;;;;;;;14.97;2.37;;;13.60;99.90;;;;;;5072020;28;20257;-59
2022/10/07 01:33:03;;;;;;;12.43;2.17;;;13.60;99.90;;;;;;5069359;28;20283;-59
2022/10/07 01:35:34;;;;;;;13.27;2.70;;;13.40;99.90;;;;;;5071798;28;20184;-59
2022/10/07 01:38:06;;;;;;;17.23;2.87;;;13.70;99.90;;;;;;5071873;28;20251;-59
2022/10/07 01:40:38;;;;;;;18.07;2.40;;;13.50;99.90;;;;;;5071821;28;20236;-61
2022/10/07 01:43:05;;;;;;;19.27;2.43;;;;;;;;;;5071788;28;20183;-60
2022/10/07 01:45:34;;;;;;;13.27;2.00;;;13.50;99.90;;;;;;5071527;28;20168;-58
2022/10/07 01:48:00;;;;;;;15.87;2.60;;;13.50;99.90;;;;;;5071625;28;20180;-59
2022/10/07 01:50:28;;;;;;;14.70;2.57;;;15.70;99.90;;;;;;5071763;28;20242;-59
2022/10/07 01:53:22;;;;;;;15.23;2.67;;;13.60;99.90;;;;;;5071417;28;20161;-59
2022/10/07 01:56:16;;;;;;;22.53;2.63;;;13.30;99.90;;;;;;5071453;28;20171;-59
2022/10/07 01:59:00;;;;;;;18.17;2.17;;;13.40;99.90;;;;;;5071331;28;20177;-59
2022/10/07 02:02:04;;;;;;;15.27;2.50;;;13.40;99.90;;;;;;5071137;28;20168;-59
2022/10/07 02:05:08;;;;;;;13.73;2.20;;;13.30;99.90;;;;;;5071378;28;20696;-58
2022/10/07 02:07:39;;;;;;;13.90;2.20;;;13.30;99.90;;;;;;5048057;28;20220;-59
2022/10/07 02:10:25;;;;;;;29.27;2.20;;;13.20;99.90;;;;;;5071032;28;20211;-59
2022/10/07 02:13:03;;;;;;;19.70;2.17;;;13.10;99.90;;;;;;5070726;28;20251;-59
2022/10/07 02:15:41;;;;;;;15.87;1.83;;;13.30;99.90;;;;;;5070287;28;20184;-59
2022/10/07 02:18:12;;;;;;;15.83;1.83;;;13.40;99.90;;;;;;5070688;28;20217;-59
2022/10/07 02:20:41;;;;;;;17.97;2.17;;;13.40;99.90;;;;;;5070657;28;20172;-58
2022/10/07 02:23:10;;;;;;;10.73;1.80;;;13.30;99.90;;;;;;5070954;28;20180;-58
2022/10/07 02:25:41;;;;;;;23.27;2.67;;;13.30;99.90;;;;;;5071068;28;20164;-58
2022/10/07 02:28:09;;;;;;;16.17;2.33;;;13.30;99.90;;;;;;5070816;28;20165;-58
2022/10/07 02:30:36;;;;;;;22.43;2.80;;;13.30;99.90;;;;;;5071098;28;20263;-58
2022/10/07 02:33:05;;;;;;;21.23;2.73;;;13.50;99.90;;;;;;5070801;28;20174;-58
2022/10/07 02:35:48;;;;;;;21.20;3.00;;;13.10;99.90;;;;;;5071199;28;20184;-58
2022/10/07 02:38:17;;;;;;;19.10;2.70;;;13.20;99.90;;;;;;5070968;28;20191;-59
2022/10/07 02:41:10;;;;;;;13.90;1.73;;;13.30;99.90;;;;;;5070941;28;20313;-59
2022/10/07 02:44:08;;;;;;;15.10;2.50;;;13.40;99.90;;;;;;5070969;28;20591;-58
2022/10/07 02:46:49;;;;;;;23.43;2.10;;;13.00;99.90;;;;;;5070805;28;20255;-58
2022/10/07 02:49:18;;;;;;;16.47;2.30;;;13.30;99.90;;;;;;5070869;28;20208;-60
2022/10/07 02:51:56;;;;;;;19.17;2.40;;;13.60;99.90;;;;;;5070828;28;20192;-58
2022/10/07 02:54:28;;;;;;;17.33;2.13;;;13.20;99.90;;;;;;5071000;28;20172;-61
2022/10/07 02:56:56;;;;;;;13.65;2.03;;;13.10;99.90;;;;;;5070725;28;20400;-59
2022/10/07 02:59:24;;;;;;;11.77;1.90;;;13.30;99.90;;;;;;5070862;28;20177;-60
2022/10/07 03:01:54;;;;;;;17.10;2.23;;;13.20;99.90;;;;;;5070685;28;20180;-59
2022/10/07 03:04:21;;;;;;;12.47;1.93;;;13.20;99.90;;;;;;5070595;28;20263;-59
2022/10/07 03:06:47;;;;;;;15.43;2.13;;;13.30;99.90;;;;;;5070639;28;20169;-59
2022/10/07 03:09:13;;;;;;;18.40;2.20;;;13.40;99.90;;;;;;5070493;28;20215;-59
2022/10/07 03:11:38;;;;;;;14.53;1.93;;;13.20;99.90;;;;;;5070663;28;20184;-59
2022/10/07 03:14:04;;;;;;;15.30;2.10;;;13.10;99.90;;;;;;5072432;28;20578;-59
2022/10/07 03:16:31;;;;;;;14.03;1.90;;;12.90;99.90;;;;;;5074026;28;20164;-59
2022/10/07 03:18:57;;;;;;;15.67;1.90;;;13.20;99.90;;;;;;5074356;28;20176;-59
2022/10/07 03:21:24;;;;;;;13.23;1.70;;;13.20;99.90;;;;;;5074600;28;20177;-59
2022/10/07 03:23:51;;;;;;;13.87;1.67;;;13.30;99.90;;;;;;5073560;28;20168;-60
2022/10/07 03:26:18;;;;;;;17.90;1.93;;;13.20;99.90;;;;;;5073553;28;20177;-60
2022/10/07 03:28:44;;;;;;;11.70;1.90;;;13.20;99.90;;;;;;5073859;28;20231;-60
2022/10/07 03:31:12;;;;;;;12.83;1.93;;;13.30;99.90;;;;;;5074001;28;20169;-60
2022/10/07 03:33:38;;;;;;;8.40;1.93;;;13.30;99.90;;;;;;5074050;28;20183;-60
2022/10/07 03:36:05;;;;;;;12.07;1.87;;;12.70;99.90;;;;;;5074057;28;20188;-60
2022/10/07 03:38:31;;;;;;;18.57;2.00;;;13.00;99.90;;;;;;5074235;28;20200;-60
2022/10/07 03:41:00;;;;;;;12.67;1.87;;;13.20;99.90;;;;;;5073683;28;20183;-59
2022/10/07 03:43:26;;;;;;;11.70;2.37;;;;;;;;;;5073834;28;20180;-60
2022/10/07 03:45:52;;;;;;;13.50;1.80;;;13.10;99.90;;;;;;5073588;28;20218;-60
2022/10/07 03:48:18;;;;;;;16.90;2.43;;;;;;;;;;5073971;28;20173;-58
2022/10/07 03:50:51;;;;;;;15.87;2.27;;;13.20;99.90;;;;;;5073838;28;20173;-58
2022/10/07 03:53:17;;;;;;;18.93;1.97;;;13.20;99.90;;;;;;5073800;28;20219;-58
2022/10/07 03:55:43;;;;;;;18.70;2.30;;;13.10;99.90;;;;;;5073902;28;20731;-57
2022/10/07 03:58:10;;;;;;;19.13;1.90;;;13.20;99.90;;;;;;5073723;28;20252;-57
2022/10/07 04:00:37;;;;;;;17.00;2.23;;;13.20;99.90;;;;;;5071341;28;20552;-57
2022/10/07 04:03:04;;;;;;;16.73;2.23;;;13.20;99.90;;;;;;5073833;28;20165;-57
2022/10/07 04:05:30;;;;;;;16.03;2.20;;;13.30;99.90;;;;;;5073840;28;20165;-58
2022/10/07 04:07:55;;;;;;;15.53;1.90;;;13.20;99.90;;;;;;5073526;28;20649;-58
2022/10/07 04:10:21;;;;;;;10.83;1.93;;;13.20;99.90;;;;;;5072792;28;20690;-58
2022/10/07 04:12:47;;;;;;;14.80;1.83;;;13.30;99.90;;;;;;5073499;28;20317;-59
2022/10/07 04:15:14;;;;;;;23.47;2.77;;;13.40;99.90;;;;;;5073147;28;20181;-59
2022/10/07 04:17:44;;;;;;;11.40;1.77;;;13.30;99.90;;;;;;5073467;28;20157;-59
2022/10/07 04:20:12;;;;;;;9.97;1.73;;;13.70;99.90;;;;;;5073327;28;20168;-59
2022/10/07 04:22:38;;;;;;;14.27;2.30;;;13.30;99.90;;;;;;5073069;28;20255;-59
2022/10/07 04:27:51;;;;;;;11.97;2.40;;;13.30;99.90;;;;;;5073633;28;20192;-59
2022/10/07 04:30:17;;;;;;;10.77;1.77;;;13.00;99.90;;;;;;5073247;28;20234;-59
2022/10/07 04:32:42;;;;;;;15.83;2.07;;;13.30;99.90;;;;;;5073023;28;20647;-59
2022/10/07 04:35:08;;;;;;;13.13;2.10;;;13.30;99.90;;;;;;5072920;28;20202;-60
2022/10/07 04:37:34;;;;;;;16.97;2.63;;;13.50;99.90;;;;;;5073242;28;20224;-59
2022/10/07 04:39:59;;;;;;;10.73;1.70;;;13.40;99.90;;;;;;5073044;28;20184;-61
2022/10/07 04:45:09;;;;;;;15.53;2.00;;;13.30;99.90;;;;;;5073077;28;20553;-59
2022/10/07 04:47:35;;;;;;;7.60;1.60;;;13.40;99.90;;;;;;5071777;28;20169;-59
2022/10/07 04:50:04;;;;;;;8.97;1.40;;;13.40;99.90;;;;;;5072754;28;20212;-58
2022/10/07 04:52:30;;;;;;;16.57;2.90;;;13.50;99.90;;;;;;5072704;28;20635;-58
2022/10/07 04:54:56;;;;;;;11.77;1.53;;;13.40;99.90;;;;;;5072922;28;20173;-58
2022/10/07 04:57:22;;;;;;;12.40;1.70;;;13.50;99.90;;;;;;5071616;28;20207;-57
2022/10/07 04:59:48;;;;;;;9.93;1.63;;;;;;;;;;5072968;28;20196;-58
2022/10/07 05:02:13;;;;;;;11.23;1.63;;;13.60;99.90;;;;;;5072573;28;20211;-59
2022/10/07 05:04:39;;;;;;;11.90;1.63;;;13.60;99.90;;;;;;5072702;28;20631;-58
2022/10/07 05:07:04;;;;;;;12.60;1.87;;;13.50;99.90;;;;;;5071339;28;20635;-58
2022/10/07 05:09:30;;;;;;;9.60;1.73;;;13.60;99.90;;;;;;5072471;28;20212;-58
2022/10/07 05:11:56;;;;;;;13.37;1.67;;;13.60;99.90;;;;;;5072642;28;20192;-58
2022/10/07 05:14:22;;;;;;;8.37;1.10;;;13.50;99.90;;;;;;5070928;28;20184;-58
2022/10/07 05:16:48;;;;;;;21.77;2.13;;;13.60;99.90;;;;;;5071987;28;20530;-58
2022/10/07 05:19:14;;;;;;;9.17;1.50;;;13.60;99.90;;;;;;5072359;28;20184;-59
2022/10/07 05:21:40;;;;;;;13.07;1.77;;;13.70;99.90;;;;;;5071177;28;20255;-59
2022/10/07 05:24:06;;;;;;;9.70;1.43;;;13.60;99.90;;;;;;5072520;28;20176;-58
2022/10/07 05:26:32;;;;;;;11.40;1.50;;;13.70;99.90;;;;;;5072104;28;20169;-59
2022/10/07 05:28:58;;;;;;;8.07;1.50;;;13.60;99.90;;;;;;5071889;28;20295;-59
2022/10/07 05:31:25;;;;;;;14.83;1.73;;;13.70;99.90;;;;;;5072000;28;20168;-59
2022/10/07 05:33:51;;;;;;;11.70;1.67;;;13.70;99.90;;;;;;5071932;28;20230;-58
2022/10/07 05:36:18;;;;;;;12.87;1.70;;;13.80;99.90;;;;;;5071964;28;20666;-58
2022/10/07 05:38:44;;;;;;;8.50;1.30;;;;;;;;;;5071970;28;20211;-58
2022/10/07 05:41:11;;;;;;;11.70;1.87;;;13.30;99.90;;;;;;5071951;28;20212;-59
2022/10/07 05:43:40;;;;;;;9.17;1.50;;;13.60;99.90;;;;;;5071990;28;20211;-58
2022/10/07 05:46:11;;;;;;;8.90;1.50;;;13.70;99.90;;;;;;5072002;28;20185;-58
2022/10/07 05:48:38;;;;;;;10.27;1.47;;;13.70;99.90;;;;;;5071686;28;20265;-58
2022/10/07 05:51:03;;;;;;;12.77;1.40;;;13.70;99.90;;;;;;5071769;28;20351;-59
2022/10/07 05:53:29;;;;;;;12.47;1.57;;;13.70;99.90;;;;;;5071790;28;20282;-59
2022/10/07 05:55:55;;;;;;;6.43;1.33;;;13.70;99.90;;;;;;5071545;28;20169;-57
2022/10/07 05:58:21;;;;;;;14.27;1.90;;;13.80;99.90;;;;;;5071681;28;20180;-60
2022/10/07 06:00:51;;;;;;;14.33;2.20;;;13.90;99.90;;;;;;5071634;28;20191;-57
2022/10/07 06:03:16;;;;;;;7.23;1.40;;;13.80;99.90;;;;;;5071185;28;20225;-57
2022/10/07 06:05:44;;;;;;;12.17;1.90;;;13.80;99.90;;;;;;5071080;28;20184;-58
2022/10/07 06:08:10;;;;;;;16.77;2.42;;;14.00;99.90;;;;;;5070916;28;20499;-58
2022/10/07 06:13:20;;;;;;;6.70;1.55;;;13.50;99.90;;;;;;5071170;28;20270;-60
2022/10/07 06:15:45;;;;;;;16.03;2.00;;;13.80;99.90;;;;;;5070972;28;20180;-60
2022/10/07 06:18:11;;;;;;;10.27;1.90;;;;;;;;;;5070666;28;20253;-60
2022/10/07 06:20:37;;;;;;;17.07;1.70;;;13.70;99.90;;;;;;5070815;28;20208;-61
2022/10/07 06:23:03;;;;;;;9.60;1.60;;;13.60;99.90;;;;;;5070769;28;20571;-61
2022/10/07 06:25:29;;;;;;;10.47;1.50;;;13.70;99.90;;;;;;5070962;28;20191;-60
2022/10/07 06:27:56;;;;;;;10.77;1.83;;;13.70;99.90;;;;;;5070896;28;20498;-61
2022/10/07 06:30:23;;;;;;;12.87;1.70;;;13.70;99.90;;;;;;5070945;28;20607;-61
2022/10/07 06:32:49;;;;;;;17.90;1.67;;;14.00;99.90;;;;;;5070829;28;20253;-61
2022/10/07 06:35:14;;;;;;;11.63;1.60;;;14.00;99.90;;;;;;5071208;28;20176;-60
2022/10/07 06:37:40;;;;;;;11.50;1.23;;;13.80;99.90;;;;;;5070933;28;20626;-60
2022/10/07 06:40:06;;;;;;;13.95;1.70;;;13.80;99.90;;;;;;5070920;28;20657;-60
2022/10/07 06:42:32;;;;;;;11.25;1.48;;;13.80;99.90;;;;;;5070888;28;20211;-60
2022/10/07 06:44:58;;;;;;;12.93;1.40;;;13.60;99.90;;;;;;5070654;28;20531;-60
2022/10/07 06:47:23;;;;;;;15.50;1.85;;;13.70;99.90;;;;;;5071103;28;20191;-60
2022/10/07 06:49:49;;;;;;;14.60;2.08;;;13.60;99.90;;;;;;5070260;28;20663;-61
2022/10/07 06:52:15;;;;;;;10.87;1.47;;;13.70;99.90;;;;;;5068715;28;20761;-60
2022/10/07 06:54:40;;;;;;;14.03;1.60;;;13.70;99.90;;;;;;5070848;28;20182;-62
2022/10/07 06:57:06;;;;;;;13.07;1.58;;;13.80;99.90;;;;;;5070674;28;20252;-62
2022/10/07 06:59:32;;;;;;;10.80;2.07;;;13.50;99.90;;;;;;5069218;28;20226;-62
2022/10/07 07:01:58;;;;;;;15.37;1.77;;;13.60;99.90;;;;;;5070752;28;20168;-63
2022/10/07 07:04:24;;;;;;;8.27;1.60;;;13.60;99.90;;;;;;5070620;28;20222;-63
2022/10/07 07:06:50;;;;;;;12.20;1.50;;;13.70;99.90;;;;;;5070560;28;20176;-62
2022/10/07 07:09:15;;;;;;;11.23;1.83;;;13.70;99.90;;;;;;5070375;28;20317;-62
2022/10/07 07:11:43;;;;;;;11.10;1.50;;;13.80;99.90;;;;;;5060441;28;20181;-63
2022/10/07 07:14:10;;;;;;;12.40;1.57;;;13.70;99.90;;;;;;5049597;28;20217;-62
2022/10/07 07:16:36;;;;;;;9.80;1.60;;;13.50;99.90;;;;;;5059807;28;20310;-62
2022/10/07 07:19:06;;;;;;;10.10;1.27;;;13.70;99.90;;;;;;5070632;28;20207;-62
2022/10/07 07:21:33;;;;;;;11.13;1.90;;;13.80;99.90;;;;;;5066849;28;20444;-63
2022/10/07 07:24:00;;;;;;;17.43;2.07;;;13.80;99.90;;;;;;5067812;28;20259;-61
2022/10/07 07:26:27;;;;;;;8.25;1.30;;;13.90;99.90;;;;;;5070273;28;20658;-60
2022/10/07 07:28:58;;;;;;;9.73;1.27;;;13.70;99.90;;;;;;5069939;28;20718;-61
2022/10/07 07:31:27;;;;;;;12.67;1.60;;;13.90;99.90;;;;;;5065496;28;20222;-58
2022/10/07 07:33:55;;;;;;;15.43;1.73;;;13.70;99.90;;;;;;5068106;28;20183;-61
2022/10/07 07:36:23;;;;;;;9.60;1.53;;;14.00;99.90;;;;;;5060662;28;20328;-61
2022/10/07 07:38:54;;;;;;;13.77;1.73;;;14.10;99.90;;;;;;5056357;28;20185;-62
2022/10/07 07:41:24;;;;;;;8.95;1.30;;;14.20;99.90;;;;;;5069349;28;20250;-61
2022/10/07 07:43:52;;;;;;;13.68;1.30;;;14.30;99.90;;;;;;5070213;28;20176;-61
2022/10/07 07:46:20;;;;;;;11.97;1.60;;;14.40;99.90;;;;;;5070262;28;20249;-61
2022/10/07 07:48:45;;;;;;;13.63;1.80;;;14.40;99.90;;;;;;5070209;28;20675;-61
2022/10/07 07:51:13;;;;;;;10.60;1.30;;;14.60;99.90;;;;;;5070247;28;20646;-62
2022/10/07 07:53:39;;;;;;;17.30;2.38;;;14.50;99.90;;;;;;5070080;28;20188;-61
2022/10/07 07:56:05;;;;;;;10.68;1.70;;;14.60;99.90;;;;;;5070293;28;20642;-61
2022/10/07 07:58:31;;;;;;;8.25;2.05;;;14.50;99.90;;;;;;5069197;28;20290;-62
2022/10/07 08:01:02;;;;;;;9.82;1.65;;;14.50;99.90;;;;;;5071764;28;20216;-61
2022/10/07 08:03:28;;;;;;;10.63;1.65;;;14.50;99.90;;;;;;5073464;28;20180;-61
2022/10/07 08:05:54;;;;;;;10.65;1.75;;;14.60;99.90;;;;;;5071837;28;20181;-61
2022/10/07 08:08:20;;;;;;;11.18;1.50;;;14.50;99.90;;;;;;5070135;28;20184;-61
2022/10/07 08:10:46;;;;;;;11.48;1.88;;;14.70;99.90;;;;;;5071418;28;20515;-62
2022/10/07 08:13:11;;;;;;;9.75;1.80;;;14.70;99.90;;;;;;5061629;28;20235;-59
2022/10/07 08:15:37;;;;;;;9.02;1.38;;;16.00;99.90;;;;;;5065233;28;20534;-61
2022/10/07 08:18:05;;;;;;;14.52;1.75;;;16.80;99.90;;;;;;5063976;28;20244;-59
2022/10/07 08:20:31;;;;;;;11.30;2.40;;;16.50;99.90;;;;;;5069065;28;20176;-62
2022/10/07 08:22:58;;;;;;;10.82;1.00;;;16.60;99.90;;;;;;5072958;28;20175;-63
2022/10/07 08:25:24;;;;;;;8.55;1.02;;;16.30;99.90;;;;;;5068561;28;20208;-61
2022/10/07 08:27:50;;;;;;;11.18;1.38;;;16.00;99.90;;;;;;5053360;28;20165;-61
2022/10/07 08:30:16;;;;;;;12.02;2.05;;;15.60;99.90;;;;;;5066667;28;20303;-61
2022/10/07 08:32:41;;;;;;;7.38;1.30;;;15.60;99.90;;;;;;5073323;28;20196;-61
2022/10/07 08:35:07;;;;;;;7.93;1.55;;;15.60;99.90;;;;;;5062003;28;20264;-62
2022/10/07 08:37:33;;;;;;;7.97;1.33;;;15.90;99.90;;;;;;5064588;28;20169;-61
2022/10/07 08:39:58;;;;;;;11.05;1.90;;;15.80;99.90;;;;;;5073426;28;20180;-61
2022/10/07 08:42:35;;;;;;;11.52;1.58;;;16.20;99.90;;;;;;5071897;28;20239;-61
2022/10/07 08:45:02;;;;;;;6.80;1.35;;;16.40;99.90;;;;;;5061159;28;20168;-61
2022/10/07 08:47:42;;;;;;;12.13;1.58;;;16.40;99.90;;;;;;5062938;28;20212;-61
2022/10/07 08:50:33;;;;;;;11.23;1.85;;;16.30;99.90;;;;;;5072009;28;20227;-61
2022/10/07 08:53:07;;;;;;;9.40;1.35;;;16.20;99.90;;;;;;5073021;28;20165;-61
2022/10/07 08:55:44;;;;;;;8.60;1.75;;;16.20;99.90;;;;;;5072982;28;20254;-60
2022/10/07 08:58:34;;;;;;;9.30;1.23;;;16.00;99.90;;;;;;5072886;28;20180;-60
2022/10/07 09:01:40;;;;;;;10.38;1.15;;;16.00;99.90;;;;;;5072856;28;20268;-63
2022/10/07 09:04:28;;;;;;;7.80;1.63;;;16.10;99.90;;;;;;5070493;28;20180;-62
2022/10/07 09:07:08;;;;;;;12.38;1.52;;;16.00;99.90;;;;;;5070631;28;20516;-62
2022/10/07 09:10:00;;;;;;;11.18;1.55;;;16.20;99.90;;;;;;5070650;28;20211;-62
2022/10/07 09:12:47;;;;;;;10.25;1.50;;;16.50;99.90;;;;;;5068148;28;20239;-62
2022/10/07 09:15:43;;;;;;;4.72;0.85;;;16.50;99.90;;;;;;5070650;28;20222;-60
2022/10/07 09:18:39;;;;;;;12.13;2.03;;;16.30;99.90;;;;;;5071325;28;20240;-60
2022/10/07 09:21:17;;;;;;;8.63;1.73;;;16.60;99.90;;;;;;5072287;28;20176;-62
2022/10/07 09:23:45;;;;;;;13.77;1.80;;;16.80;99.90;;;;;;5072220;28;20670;-61
2022/10/07 09:26:12;;;;;;;19.70;1.80;;;16.90;99.90;;;;;;5070876;28;20222;-60
2022/10/07 09:28:38;;;;;;;10.95;1.38;;;16.80;99.90;;;;;;5070949;28;20245;-61
2022/10/07 09:31:04;;;;;;;11.27;1.25;;;16.70;99.90;;;;;;5055340;28;20180;-60
2022/10/07 09:33:33;;;;;;;7.45;1.38;;;16.80;99.90;;;;;;5059257;28;20165;-60
2022/10/07 09:36:08;;;;;;;11.30;1.27;;;17.20;99.90;;;;;;5071492;28;20180;-61
2022/10/07 09:38:35;;;;;;;16.55;2.45;;;16.70;99.90;;;;;;5055790;28;20177;-61
2022/10/07 09:41:23;;;;;;;7.30;1.00;;;16.80;99.90;;;;;;5065468;28;20218;-61
2022/10/07 09:43:48;;;;;;;12.98;1.42;;;17.00;99.90;;;;;;5053360;28;20275;-61
2022/10/07 09:46:46;;;;;;;10.65;1.63;;;17.10;99.90;;;;;;5070503;28;20230;-60
2022/10/07 09:49:27;;;;;;;9.35;1.38;;;17.20;99.90;;;;;;5067138;28;20224;-60
2022/10/07 09:52:14;;;;;;;9.85;1.42;;;17.20;99.90;;;;;;5068854;28;20182;-60
2022/10/07 09:54:41;;;;;;;3.20;0.85;;;17.30;99.90;;;;;;5058148;28;20168;-61
2022/10/07 09:57:21;;;;;;;4.65;0.80;;;17.20;99.90;;;;;;5061788;28;20674;-61
2022/10/07 09:59:47;;;;;;;14.05;1.27;;;17.50;99.90;;;;;;5070395;28;20206;-61
2022/10/07 10:02:12;;;;;;;5.95;1.15;;;17.40;99.90;;;;;;5069429;28;20762;-59
2022/10/07 10:04:46;;;;;;;9.68;1.23;;;17.60;99.90;;;;;;5069495;28;20184;-59
2022/10/07 10:07:34;;;;;;;10.18;1.55;;;17.70;99.90;;;;;;5070724;28;20676;-60
2022/10/07 10:10:15;;;;;;;11.40;1.10;;;17.90;99.90;;;;;;5068404;28;20204;-60
2022/10/07 10:13:01;;;;;;;5.68;1.20;;;18.20;99.90;;;;;;5069782;28;20223;-61
2022/10/07 10:15:34;;;;;;;8.80;1.50;;;17.90;99.90;;;;;;5058767;28;20181;-60
2022/10/07 10:18:01;;;;;;;4.28;0.95;;;17.80;99.90;;;;;;5061685;28;20665;-58
2022/10/07 10:20:42;;;;;;;8.23;0.95;;;17.80;99.90;;;;;;5070258;28;20655;-59
2022/10/07 10:23:34;;;;;;;8.52;1.02;;;18.40;99.90;;;;;;5062783;28;20235;-60
2022/10/07 10:26:24;;;;;;;6.60;1.05;;;18.50;99.90;;;;;;5040232;28;20185;-59
2022/10/07 10:28:57;;;;;;;9.23;1.63;;;18.60;99.90;;;;;;5050787;28;20280;-60
2022/10/07 10:31:53;;;;;;;4.65;0.80;;;18.60;99.90;;;;;;5065003;28;20184;-60
2022/10/07 10:34:37;;;;;;;7.80;1.85;;;18.80;99.90;;;;;;5069515;28;20512;-59
2022/10/07 10:37:11;;;;;;;4.90;0.65;;;19.10;99.90;;;;;;5071092;28;20358;-59
2022/10/07 10:39:52;;;;;;;8.65;1.65;;;19.00;99.90;;;;;;5054195;28;20617;-60
2022/10/07 10:42:23;;;;;;;6.70;1.20;;;19.00;99.90;;;;;;5062494;28;20207;-59
2022/10/07 10:45:11;;;;;;;10.80;1.38;;;18.80;99.90;;;;;;5071033;28;20242;-59
2022/10/07 10:48:13;;;;;;;10.30;1.20;;;19.60;99.90;;;;;;5070944;28;20172;-59
2022/10/07 10:51:14;;;;;;;7.05;1.13;;;19.80;99.90;;;;;;5069401;28;20560;-59
2022/10/07 10:53:48;;;;;;;6.13;1.05;;;18.70;99.90;;;;;;5070736;28;20175;-60
2022/10/07 10:56:41;;;;;;;5.75;1.27;;;18.80;99.90;;;;;;5070779;28;20196;-60
2022/10/07 10:59:31;;;;;;;7.72;0.88;;;18.70;99.90;;;;;;5070732;28;20168;-60
2022/10/07 11:02:21;;;;;;;4.88;0.75;;;18.20;99.90;;;;;;5070698;28;20168;-60
2022/10/07 11:05:00;;;;;;;9.68;1.08;;;18.10;99.90;;;;;;5067118;28;20184;-60
2022/10/07 11:07:31;;;;;;;5.95;1.05;;;18.20;99.90;;;;;;5060476;28;20538;-60
2022/10/07 11:10:05;;;;;;;6.88;1.15;;;20.10;99.90;;;;;;5069866;28;20203;-60
2022/10/07 11:12:38;;;;;;;6.95;0.77;;;22.20;99.90;;;;;;5070539;28;20246;-59
2022/10/07 11:15:20;;;;;;;2.47;0.55;;;21.10;99.90;;;;;;5069781;28;20180;-59
2022/10/07 11:17:50;;;;;;;7.10;1.27;;;20.90;99.90;;;;;;5069694;28;20176;-58
2022/10/07 11:20:24;;;;;;;4.47;1.42;;;20.00;99.90;;;;;;5058619;28;20198;-61
2022/10/07 11:23:09;;;;;;;5.93;0.95;;;19.70;99.90;;;;;;5070619;28;20173;-59
2022/10/07 11:25:41;;;;;;;11.18;1.70;;;19.10;99.90;;;;;;5049066;28;20188;-59
2022/10/07 11:28:22;;;;;;;7.18;1.70;;;18.90;99.90;;;;;;5070230;28;20173;-60
2022/10/07 11:31:05;;;;;;;9.80;1.83;;;18.80;99.90;;;;;;5070264;28;20314;-61
2022/10/07 11:33:53;;;;;;;8.13;1.20;;;18.70;99.90;;;;;;5069777;28;20472;-60
2022/10/07 11:36:28;;;;;;;5.85;1.25;;;18.60;99.90;;;;;;5074195;28;20172;-60
2022/10/07 11:38:54;;;;;;;5.55;0.80;;;18.50;99.90;;;;;;5074077;28;20164;-59
2022/10/07 11:41:28;;;;;;;4.28;0.95;;;18.50;99.90;;;;;;5073760;28;20190;-60
2022/10/07 11:44:02;;;;;;;6.38;1.27;;;19.40;99.90;;;;;;5074176;28;20183;-60
2022/10/07 11:46:43;;;;;;;8.90;1.17;;;19.60;99.90;;;;;;5073931;28;20535;-60
2022/10/07 11:49:33;;;;;;;4.72;0.90;;;19.40;99.90;;;;;;5073821;28;20204;-60
2022/10/07 11:52:23;;;;;;;2.70;0.68;;;20.30;99.90;;;;;;5073206;28;20169;-60
2022/10/07 11:54:58;;;;;;;7.55;0.90;;;19.90;99.90;;;;;;5074044;28;20180;-62
2022/10/07 11:57:30;;;;;;;9.05;1.00;;;19.40;99.90;;;;;;5072397;28;20168;-62
2022/10/07 12:00:30;;;;;;;5.30;0.80;;;19.70;99.90;;;;;;5073972;28;20188;-61
2022/10/07 12:02:56;;;;;;;8.20;1.42;;;19.30;99.90;;;;;;5051137;28;20184;-62
2022/10/07 12:05:47;;;;;;;6.30;1.08;;;19.20;99.90;;;;;;5060518;28;20176;-62
2022/10/07 12:08:52;;;;;;;6.65;0.85;;;18.90;99.90;;;;;;5067413;28;20187;-59
2022/10/07 12:11:17;;;;;;;9.18;1.08;;;18.70;99.90;;;;;;5071987;28;20196;-59
2022/10/07 12:13:51;;;;;;;10.05;1.40;;;18.80;99.90;;;;;;5072737;28;20293;-59
2022/10/07 12:16:22;;;;;;;8.35;1.40;;;19.00;99.90;;;;;;5071855;28;20196;-59
2022/10/07 12:19:06;;;;;;;6.00;1.17;;;18.90;99.90;;;;;;5073363;28;20180;-59
2022/10/07 12:22:03;;;;;;;9.57;1.50;;;18.80;99.90;;;;;;5073697;28;20173;-59
2022/10/07 12:24:35;;;;;;;4.53;1.00;;;18.80;99.90;;;;;;5073491;28;20649;-59
2022/10/07 12:27:27;;;;;;;7.68;1.60;;;19.10;99.90;;;;;;5073472;28;20161;-59
2022/10/07 12:29:57;;;;;;;9.07;1.23;;;19.30;99.90;;;;;;5073394;28;20212;-60
2022/10/07 12:32:49;;;;;;;8.95;1.20;;;20.00;99.90;;;;;;5072427;28;20185;-59
2022/10/07 12:35:35;;;;;;;7.13;1.40;;;20.90;99.90;;;;;;5069014;28;20191;-59
2022/10/07 12:38:22;;;;;;;7.65;0.70;;;22.50;99.90;;;;;;5072840;28;20252;-60
2022/10/07 12:41:04;;;;;;;7.47;1.10;;;22.50;99.90;;;;;;5073276;28;20453;-61
2022/10/07 12:43:35;;;;;;;6.67;1.07;;;23.80;99.90;;;;;;5072630;28;20462;-60
2022/10/07 12:46:13;;;;;;;4.15;1.13;;;23.60;99.90;;;;;;5071518;28;20471;-60
2022/10/07 12:49:03;;;;;;;7.32;1.15;;;24.70;99.90;;;;;;5073137;28;20195;-61
2022/10/07 12:51:38;;;;;;;3.85;1.10;;;24.80;99.90;;;;;;5072937;28;20173;-61
2022/10/07 12:54:25;;;;;;;8.75;1.05;;;25.20;99.90;;;;;;5072412;28;20253;-60
2022/10/07 12:56:51;;;;;;;6.85;1.00;;;24.00;99.90;;;;;;5072773;28;20164;-61
2022/10/07 12:59:47;;;;;;;7.90;1.30;;;24.00;99.90;;;;;;5072742;28;20172;-61
2022/10/07 13:02:33;;;;;;;6.38;0.90;;;24.40;99.90;;;;;;5072845;28;20210;-61
2022/10/07 13:05:35;;;;;;;4.10;0.80;;;24.70;99.90;;;;;;5060467;28;20279;-60
2022/10/07 13:08:01;;;;;;;3.80;0.88;;;;;;;;;;5052618;28;20417;-60
2022/10/07 13:10:45;;;;;;;6.18;0.57;;;21.10;99.90;;;;;;5052333;28;20211;-61
2022/10/07 13:13:14;;;;;;;10.13;1.27;;;20.70;99.90;;;;;;5059087;28;20545;-60
2022/10/07 13:15:52;;;;;;;7.55;0.98;;;20.40;99.90;;;;;;5072420;28;20533;-60
2022/10/07 13:18:43;;;;;;;5.65;0.75;;;20.00;99.90;;;;;;5057639;28;20180;-60
2022/10/07 13:21:25;;;;;;;2.83;0.60;;;20.60;99.90;;;;;;5052436;28;20228;-60